| time (UTC) | temp F | wind direction | speed MPH | gust MPH | rain 1hr in | rain 24hr in | rain mn in | humidity % | barometer mb |
| 20260902053026 | 58 | 88 | 3.0 | 5.0 | 0.00 | 0.00 | 0.00 | 92 | 1022.4 |
| 20260902051527 | 57 | 96 | 3.0 | 8.0 | 0.00 | 0.00 | 0.00 | 94 | 1022.4 |
| 20260902050021 | 57 | 79 | 3.0 | 6.0 | 0.00 | 0.00 | 0.00 | 96 | 1022.4 |
| 20260902044511 | 56 | 78 | 0.0 | 2.0 | 0.00 | 0.00 | 0.00 | 95 | 1022.1 |
| 20260902043034 | 56 | 78 | 0.0 | 2.0 | 0.00 | 0.00 | 0.00 | 94 | 1021.9 |
| 20260902041536 | 57 | 78 | 0.0 | 5.0 | 0.00 | 0.00 | 0.00 | 94 | 1021.8 |
| 20260902040029 | 57 | 6 | 1.0 | 3.0 | 0.00 | 0.00 | 0.00 | 95 | 1021.7 |
| 20260902034524 | 56 | 81 | 1.0 | 3.0 | 0.00 | 0.00 | 0.00 | 95 | 1021.8 |
| 20260902033019 | 55 | 167 | 1.0 | 2.0 | 0.00 | 0.00 | 0.00 | 94 | 1021.6 |
| 20260902031536 | 56 | 167 | 2.0 | 3.0 | 0.00 | 0.00 | 0.00 | 93 | 1021.5 |
| 20260902030015 | 56 | 167 | 0.0 | 0.0 | 0.00 | 0.00 | 0.00 | 93 | 1021.4 |
| 20260902024532 | 56 | 167 | 0.0 | 2.0 | 0.00 | 0.00 | 0.00 | 93 | 1021.4 |
| 20260902023032 | 56 | 167 | 0.0 | 1.0 | 0.00 | 0.00 | 0.00 | 92 | 1021.5 |
| 20260902021530 | 57 | 167 | 1.0 | 2.0 | 0.00 | 0.00 | 0.00 | 92 | 1021.3 |
| 20260902020024 | 56 | 167 | 0.0 | 2.0 | 0.00 | 0.00 | 0.00 | 91 | 1021.3 |
| 20260902014516 | 57 | 167 | 0.0 | 2.0 | 0.00 | 0.00 | 0.00 | 91 | 1021.3 |
| 20260902013019 | 58 | 167 | 1.0 | 2.0 | 0.00 | 0.00 | 0.00 | 90 | 1021.3 |
| 20260902011520 | 58 | 167 | 0.0 | 2.0 | 0.00 | 0.00 | 0.00 | 90 | 1021.4 |
| 20260902010007 | 59 | 167 | 0.0 | 2.0 | 0.00 | 0.00 | 0.00 | 89 | 1021.1 |
| 20260902004505 | 59 | 167 | 0.0 | 2.0 | 0.00 | 0.00 | 0.00 | 88 | 1021.2 |
| 20260902003028 | 60 | 167 | 0.0 | 0.0 | 0.00 | 0.00 | 0.00 | 87 | 1021.1 |
| 20260902001529 | 61 | 167 | 0.0 | 0.0 | 0.00 | 0.00 | 0.00 | 86 | 1021.0 |
| 20260902000024 | 61 | 167 | 0.0 | 3.0 | 0.00 | 0.00 | 0.00 | 85 | 1021.0 |
| 20260901234517 | 62 | 200 | 1.0 | 3.0 | 0.00 | 0.00 | 0.00 | 84 | 1020.9 |
| 20260901233014 | 63 | 200 | 0.0 | 2.0 | 0.00 | 0.00 | 0.00 | 82 | 1020.9 |
| 20260901231518 | 64 | 200 | 1.0 | 3.0 | 0.00 | 0.00 | 0.00 | 80 | 1020.8 |
| 20260901230008 | 65 | 200 | 1.0 | 3.0 | 0.00 | 0.00 | 0.00 | 78 | 1020.6 |
| 20260901224530 | 66 | 201 | 1.0 | 4.0 | 0.00 | 0.00 | 0.00 | 78 | 1020.5 |
| 20260901223028 | 67 | 102 | 1.0 | 4.0 | 0.00 | 0.00 | 0.00 | 78 | 1020.5 |
| 20260901221526 | 67 | 186 | 1.0 | 6.0 | 0.00 | 0.00 | 0.00 | 77 | 1020.5 |
| 20260901220021 | 67 | 115 | 2.0 | 7.0 | 0.00 | 0.00 | 0.00 | 75 | 1020.5 |
| 20260901214516 | 68 | 103 | 4.0 | 6.0 | 0.00 | 0.00 | 0.00 | 72 | 1020.2 |
| 20260901213024 | 68 | 106 | 1.0 | 7.0 | 0.00 | 0.00 | 0.00 | 72 | 1020.0 |
| 20260901211533 | 68 | 139 | 3.0 | 8.0 | 0.00 | 0.00 | 0.00 | 70 | 1019.8 |
| 20260901210030 | 70 | 113 | 3.0 | 6.0 | 0.00 | 0.00 | 0.00 | 70 | 1019.8 |
| 20260901204528 | 70 | 168 | 4.0 | 8.0 | 0.00 | 0.00 | 0.00 | 72 | 1019.7 |
| 20260901203028 | 70 | 92 | 3.0 | 10.0 | 0.00 | 0.00 | 0.00 | 68 | 1019.6 |
| 20260901201522 | 70 | 120 | 5.0 | 10.0 | 0.00 | 0.00 | 0.00 | 65 | 1019.7 |
| 20260901200018 | 72 | 113 | 2.0 | 8.0 | 0.00 | 0.00 | 0.00 | 66 | 1019.9 |
| 20260901194515 | 73 | 165 | 3.0 | 6.0 | 0.00 | 0.00 | 0.00 | 67 | 1019.8 |
| 20260901193034 | 71 | 158 | 2.0 | 8.0 | 0.00 | 0.00 | 0.00 | 68 | 1019.9 |
| 20260901191538 | 69 | 146 | 5.0 | 9.0 | 0.00 | 0.00 | 0.00 | 70 | 1019.7 |
| 20260901190032 | 68 | 109 | 5.0 | 9.0 | 0.00 | 0.00 | 0.00 | 73 | 1019.9 |
| 20260901184526 | 68 | 89 | 6.0 | 11.0 | 0.00 | 0.00 | 0.00 | 69 | 1019.9 |
| 20260901183044 | 68 | 77 | 4.0 | 13.0 | 0.00 | 0.00 | 0.00 | 68 | 1019.8 |
| 20260901181522 | 68 | 84 | 5.0 | 10.0 | 0.00 | 0.00 | 0.00 | 69 | 1019.8 |
| 20260901180021 | 67 | 89 | 8.0 | 14.0 | 0.00 | 0.00 | 0.00 | 69 | 1019.8 |
| 20260901174533 | 67 | 84 | 4.0 | 10.0 | 0.00 | 0.00 | 0.00 | 72 | 1019.7 |
| 20260901173031 | 65 | 113 | 6.0 | 10.0 | 0.00 | 0.00 | 0.00 | 72 | 1019.9 |
| 20260901171547 | 68 | 100 | 3.0 | 7.0 | 0.00 | 0.00 | 0.00 | 69 | 1019.8 |
| 20260901170043 | 69 | 148 | 2.0 | 7.0 | 0.00 | 0.00 | 0.00 | 69 | 1019.7 |
| 20260901164504 | 68 | 110 | 2.0 | 8.0 | 0.00 | 0.00 | 0.00 | 72 | 1019.7 |
| 20260901163007 | 69 | 105 | 4.0 | 7.0 | 0.00 | 0.00 | 0.00 | 71 | 1019.6 |
| 20260901161509 | 70 | 1 | 2.0 | 5.0 | 0.00 | 0.00 | 0.00 | 69 | 1019.8 |
| 20260901160012 | 70 | 72 | 3.0 | 7.0 | 0.00 | 0.00 | 0.00 | 69 | 1019.8 |
| 20260901154512 | 69 | 22 | 2.0 | 6.0 | 0.00 | 0.00 | 0.00 | 70 | 1019.7 |
| 20260901153012 | 69 | 63 | 2.0 | 6.0 | 0.00 | 0.00 | 0.00 | 70 | 1019.7 |
| 20260901151505 | 70 | 86 | 2.0 | 6.0 | 0.00 | 0.00 | 0.00 | 69 | 1019.7 |
| 20260901150007 | 70 | 44 | 1.0 | 6.0 | 0.00 | 0.00 | 0.00 | 69 | 1019.6 |
| 20260901144512 | 68 | 55 | 4.0 | 8.0 | 0.00 | 0.00 | 0.00 | 69 | 1019.7 |
| 20260901143014 | 69 | 95 | 3.0 | 8.0 | 0.00 | 0.00 | 0.00 | 68 | 1019.7 |
| 20260901141513 | 68 | 49 | 2.0 | 8.0 | 0.00 | 0.00 | 0.00 | 69 | 1019.7 |
| 20260901140012 | 69 | 60 | 2.0 | 7.0 | 0.00 | 0.00 | 0.00 | 69 | 1019.6 |
| 20260901134511 | 68 | 19 | 3.0 | 5.0 | 0.00 | 0.00 | 0.00 | 70 | 1019.6 |
| 20260901133008 | 67 | 340 | 2.0 | 4.0 | 0.00 | 0.00 | 0.00 | 72 | 1019.7 |
| 20260901131521 | 67 | 280 | 0.0 | 0.0 | 0.00 | 0.00 | 0.00 | 73 | 1019.8 |
| 20260901130017 | 67 | 280 | 0.0 | 0.0 | 0.00 | 0.00 | 0.00 | 75 | 1019.8 |
| 20260901124516 | 65 | 280 | 0.0 | 0.0 | 0.00 | 0.00 | 0.00 | 79 | 1019.7 |
| 20260901123028 | 65 | 280 | 0.0 | 0.0 | 0.00 | 0.00 | 0.00 | 79 | 1019.6 |
| 20260901120013 | 63 | 124 | 0.0 | 2.0 | 0.00 | 0.00 | 0.00 | 85 | 1019.5 |
| 20260901114507 | 61 | 124 | 1.0 | 2.0 | 0.00 | 0.00 | 0.00 | 88 | 1019.3 |
| 20260901113016 | 59 | 124 | 0.0 | 2.0 | 0.00 | 0.00 | 0.00 | 90 | 1019.2 |
| 20260901111516 | 57 | 124 | 0.0 | 2.0 | 0.00 | 0.00 | 0.00 | 92 | 1019.2 |
| 20260901110017 | 56 | 124 | 1.0 | 2.0 | 0.00 | 0.00 | 0.00 | 93 | 1019.1 |
| 20260901104522 | 56 | 124 | 1.0 | 3.0 | 0.00 | 0.00 | 0.00 | 92 | 1018.9 |
| 20260901103015 | 55 | 103 | 0.0 | 2.0 | 0.00 | 0.00 | 0.00 | 92 | 1018.7 |
| 20260901101522 | 0 | 0.0 | 0.0 | 0.00 | 0.00 | 0.00 | 1018.7 | ||
| 20260901100020 | 0 | 0.0 | 0.0 | 0.00 | 0.00 | 0.00 | 1018.7 | ||
| 20260901094521 | 0 | 0.0 | 0.0 | 0.00 | 0.00 | 0.00 | 1018.8 | ||
| 20260901093024 | 0 | 0.0 | 0.0 | 0.00 | 0.00 | 0.00 | 1018.9 | ||
| 20260901091525 | 0 | 0.0 | 0.0 | 0.00 | 0.00 | 0.00 | 1018.8 | ||
| 20260901090026 | 0 | 0.0 | 0.0 | 0.00 | 0.00 | 0.00 | 1018.9 | ||
| 20260901084530 | 0 | 0.0 | 0.0 | 0.00 | 0.00 | 0.00 | 1018.8 | ||
| 20260901083026 | 0 | 0.0 | 0.0 | 0.00 | 0.00 | 0.00 | 1018.8 | ||
| 20260901081525 | 0 | 0.0 | 0.0 | 0.00 | 0.00 | 0.00 | 1019.0 | ||
| 20260901080027 | 56 | 0.0 | 0.0 | 0.00 | 0.00 | 0.00 | 1018.9 | ||
| 20260901074524 | 56 | 193 | 3.0 | 4.0 | 0.00 | 0.00 | 0.00 | 94 | 1019.0 |
| 20260901073016 | 56 | 170 | 1.0 | 3.0 | 0.00 | 0.00 | 0.00 | 93 | 1018.9 |
| 20260901071529 | 56 | 186 | 2.0 | 3.0 | 0.00 | 0.00 | 0.00 | 93 | 1019.1 |
| 20260901070028 | 56 | 186 | 2.0 | 3.0 | 0.00 | 0.00 | 0.00 | 93 | 1019.1 |
| 20260901064527 | 56 | 186 | 1.0 | 2.0 | 0.00 | 0.00 | 0.00 | 92 | 1019.1 |
| 20260901063028 | 56 | 186 | 0.0 | 3.0 | 0.00 | 0.00 | 0.00 | 92 | 1019.2 |
| 20260901061528 | 56 | 167 | 2.0 | 4.0 | 0.00 | 0.00 | 0.00 | 92 | 1018.9 |
| 20260901060037 | 56 | 264 | 2.0 | 4.0 | 0.00 | 0.00 | 0.00 | 93 | 1019.1 |
| 20260901054519 | 56 | 187 | 2.0 | 3.0 | 0.00 | 0.00 | 0.00 | 92 | 1019.1 |